Time;durP1;ratioP1;P1;durP2;ratioP2;P2;SDS_P1;SDS_P2;PMS_P1;PMS_P2;Temp;Humidity;BMP_temperature;BMP_pressure;BME280_temperature;BME280_humidity;BME280_pressure;Samples;Min_cycle;Max_cycle;Signal;HPM_P1;HPM_P2
2021/11/10 00:00:40;;;;;;;14.42;6.50;;;;;;;;;;363726;144;866489;-55
2021/11/10 00:01:42;;;;;;;12.36;6.30;;;;;;;;;;364118;146;865133;-55
2021/11/10 00:02:43;;;;;;;13.07;6.26;;;;;;;;;;364773;144;866906;-55
2021/11/10 00:03:45;;;;;;;12.38;6.13;;;;;;;;;;363475;144;857874;-53
2021/11/10 00:04:46;;;;;;;12.46;6.34;;;;;;;;;;361986;145;865758;-56
2021/11/10 00:05:48;;;;;;;13.59;6.72;;;;;;;;;;364415;147;864535;-57
2021/11/10 00:06:50;;;;;;;15.45;6.62;;;;;;;;;;360589;146;858198;-55
2021/11/10 00:07:51;;;;;;;16.93;6.69;;;;;;;;;;363436;146;863447;-56
2021/11/10 00:08:53;;;;;;;16.92;6.89;;;;;;;;;;364235;147;865091;-54
2021/11/10 00:09:54;;;;;;;13.83;5.91;;;;;;;;;;363229;145;865231;-58
2021/11/10 00:10:56;;;;;;;11.60;5.69;;;;;;;;;;360802;144;857394;-55
2021/11/10 00:11:58;;;;;;;11.69;5.91;;;;;;;;;;365357;145;866147;-56
2021/11/10 00:13:18;;;;;;;12.31;5.51;;;;;;;;;;365695;147;866332;-55
2021/11/10 00:14:18;;;;;;;13.04;6.30;;;;;;;;;;360868;146;857399;-56
2021/11/10 00:15:19;;;;;;;12.54;5.85;;;;;;;;;;361821;146;857355;-56
2021/11/10 00:16:22;;;;;;;14.17;6.03;;;;;;;;;;359288;145;866856;-56
2021/11/10 00:17:24;;;;;;;11.00;5.74;;;;;;;;;;361261;144;865127;-56
2021/11/10 00:18:26;;;;;;;11.51;5.95;;;;;;;;;;362275;146;865562;-56
2021/11/10 00:19:28;;;;;;;11.57;6.30;;;;;;;;;;360421;144;865788;-57
2021/11/10 00:20:30;;;;;;;14.30;6.52;;;;;;;;;;360739;145;865140;-56
2021/11/10 00:21:31;;;;;;;14.01;5.43;;;;;;;;;;364070;144;866867;-56
2021/11/10 00:22:33;;;;;;;10.69;5.32;;;;;;;;;;361049;148;865809;-57
2021/11/10 00:23:35;;;;;;;13.41;6.05;;;;;;;;;;361673;147;860294;-56
2021/11/10 00:24:36;;;;;;;11.08;5.96;;;;;;;;;;362866;146;865205;-57
2021/11/10 00:25:38;;;;;;;12.31;5.15;;;;;;;;;;364058;147;862515;-56
2021/11/10 00:26:39;;;;;;;12.39;6.11;;;;;;;;;;351868;150;863480;-57
2021/11/10 00:27:41;;;;;;;11.89;5.59;;;;;;;;;;353540;147;857598;-56
2021/11/10 00:28:42;;;;;;;10.09;5.49;;;;;;;;;;361477;146;866247;-55
2021/11/10 00:29:44;;;;;;;10.85;5.80;;;;;;;;;;363174;147;865473;-56
2021/11/10 00:30:46;;;;;;;11.28;5.40;;;;;;;;;;363701;145;857321;-57
2021/11/10 00:31:47;;;;;;;12.90;5.80;;;;;;;;;;363377;145;858132;-56
2021/11/10 00:32:49;;;;;;;9.33;5.83;;;;;;;;;;361438;145;865938;-56
2021/11/10 00:33:51;;;;;;;11.99;5.68;;;;;;;;;;365924;145;866815;-56
2021/11/10 00:34:52;;;;;;;11.28;5.54;;;;;;;;;;363613;144;861393;-55
2021/11/10 00:35:54;;;;;;;14.62;5.64;;;;;;;;;;361113;146;862671;-56
2021/11/10 00:36:56;;;;;;;12.40;5.63;;;;;;;;;;362208;146;866846;-55
2021/11/10 00:37:57;;;;;;;10.43;5.98;;;;;;;;;;362017;145;868233;-56
2021/11/10 00:38:59;;;;;;;12.59;5.22;;;;;;;;;;361871;145;865235;-56
2021/11/10 00:40:00;;;;;;;15.32;6.23;;;;;;;;;;361350;147;865790;-55
2021/11/10 00:41:02;;;;;;;12.43;5.93;;;;;;;;;;359068;150;862594;-55
2021/11/10 00:42:05;;;;;;;12.33;5.69;;;;;;;;;;361633;145;863328;-55
2021/11/10 00:43:07;;;;;;;9.93;5.41;;;;;;;;;;362724;146;859583;-55
2021/11/10 00:44:08;;;;;;;11.63;5.46;;;;;;;;;;369416;145;858960;-55
2021/11/10 00:45:10;;;;;;;14.62;6.11;;;;;;;;;;366727;145;866191;-56
2021/11/10 00:46:11;;;;;;;14.02;6.41;;;;;;;;;;364651;144;865322;-56
2021/11/10 00:47:13;;;;;;;10.03;5.57;;;;;;;;;;360857;147;857630;-55
2021/11/10 00:48:14;;;;;;;12.02;6.09;;;;;;;;;;359502;145;865416;-56
2021/11/10 00:49:16;;;;;;;15.17;5.89;;;;;;;;;;362283;145;860127;-56
2021/11/10 00:50:18;;;;;;;13.66;5.75;;;;;;;;;;354707;148;859584;-55
2021/11/10 00:51:20;;;;;;;11.16;5.70;;;;;;;;;;360990;148;857472;-54
2021/11/10 00:52:22;;;;;;;13.57;6.15;;;;;;;;;;362068;145;866787;-55
2021/11/10 00:53:23;;;;;;;12.92;5.81;;;;;;;;;;360051;146;862625;-54
2021/11/10 00:54:25;;;;;;;12.65;6.34;;;;;;;;;;362116;147;865959;-55
2021/11/10 00:55:29;;;;;;;15.79;6.18;;;;;;;;;;364098;145;865549;-55
2021/11/10 00:56:31;;;;;;;12.02;5.56;;;;;;;;;;362330;144;858200;-55
2021/11/10 00:57:32;;;;;;;11.79;5.91;;;;;;;;;;362898;147;865142;-56
2021/11/10 00:58:34;;;;;;;13.60;5.74;;;;;;;;;;364496;144;864943;-56
2021/11/10 00:59:35;;;;;;;13.07;6.21;;;;;;;;;;360644;145;865126;-55
2021/11/10 01:00:37;;;;;;;10.99;5.78;;;;;;;;;;361817;145;866885;-55
2021/11/10 01:01:39;;;;;;;11.49;6.16;;;;;;;;;;359454;148;866796;-55
2021/11/10 01:02:41;;;;;;;12.60;5.27;;;;;;;;;;363649;145;861911;-57
2021/11/10 01:03:43;;;;;;;10.55;5.87;;;;;;;;;;361861;147;859445;-56
2021/11/10 01:04:44;;;;;;;11.58;5.63;;;;;;;;;;363128;145;857394;-56
2021/11/10 01:05:46;;;;;;;11.04;5.24;;;;;;;;;;365983;147;859031;-55
2021/11/10 01:06:48;;;;;;;10.44;5.47;;;;;;;;;;362429;145;860205;-55
2021/11/10 01:07:49;;;;;;;9.74;4.94;;;;;;;;;;362489;147;865686;-55
2021/11/10 01:08:52;;;;;;;15.90;5.87;;;;;;;;;;362354;145;865222;-55
2021/11/10 01:09:58;;;;;;;12.85;5.44;;;;;;;;;;362673;145;866520;-55
2021/11/10 01:10:58;;;;;;;11.76;4.89;;;;;;;;;;363100;144;857421;-57
2021/11/10 01:11:59;;;;;;;8.91;5.24;;;;;;;;;;362474;146;859078;-54
2021/11/10 01:13:01;;;;;;;11.46;5.84;;;;;;;;;;359217;150;865192;-55
2021/11/10 01:14:03;;;;;;;10.24;5.24;;;;;;;;;;362507;144;861918;-56
2021/11/10 01:15:05;;;;;;;10.36;5.45;;;;;;;;;;362689;146;857466;-55
2021/11/10 01:16:08;;;;;;;11.82;6.29;;;;;;;;;;362884;145;865461;-55
2021/11/10 01:17:09;;;;;;;11.36;5.19;;;;;;;;;;359733;147;857743;-55
2021/11/10 01:18:11;;;;;;;11.91;5.59;;;;;;;;;;361075;146;865176;-55
2021/11/10 01:19:13;;;;;;;8.90;5.24;;;;;;;;;;360398;147;865189;-54
2021/11/10 01:20:15;;;;;;;10.63;5.46;;;;;;;;;;362600;146;864916;-55
2021/11/10 01:21:16;;;;;;;11.46;5.31;;;;;;;;;;361408;145;857792;-55
2021/11/10 01:22:18;;;;;;;11.20;5.69;;;;;;;;;;361253;146;866845;-54
2021/11/10 01:23:19;;;;;;;12.81;5.90;;;;;;;;;;361361;148;856751;-55
2021/11/10 01:24:21;;;;;;;10.90;5.68;;;;;;;;;;360653;145;864713;-54
2021/11/10 01:25:23;;;;;;;11.54;5.81;;;;;;;;;;361554;144;865138;-54
2021/11/10 01:26:24;;;;;;;11.28;6.27;;;;;;;;;;362124;146;864916;-55
2021/11/10 01:27:26;;;;;;;10.58;5.50;;;;;;;;;;360703;145;857177;-55
2021/11/10 01:28:28;;;;;;;11.80;5.66;;;;;;;;;;363359;144;866143;-55
2021/11/10 01:29:29;;;;;;;11.46;5.62;;;;;;;;;;363552;147;865528;-57
2021/11/10 01:30:31;;;;;;;13.81;6.19;;;;;;;;;;365394;146;865145;-56
2021/11/10 01:31:32;;;;;;;14.51;5.40;;;;;;;;;;362317;146;865168;-55
2021/11/10 01:32:34;;;;;;;9.38;5.21;;;;;;;;;;362969;144;859535;-55
2021/11/10 01:33:36;;;;;;;12.35;5.56;;;;;;;;;;360615;147;867355;-55
2021/11/10 01:34:37;;;;;;;12.58;5.56;;;;;;;;;;363136;147;865003;-55
2021/11/10 01:35:39;;;;;;;13.42;5.94;;;;;;;;;;360581;144;860210;-55
2021/11/10 01:36:40;;;;;;;11.60;5.79;;;;;;;;;;359056;147;857332;-56
2021/11/10 01:37:42;;;;;;;11.27;5.76;;;;;;;;;;359944;145;865073;-56
2021/11/10 01:38:43;;;;;;;10.83;5.94;;;;;;;;;;358737;145;865188;-55
2021/11/10 01:39:45;;;;;;;15.45;6.88;;;;;;;;;;358352;148;867368;-55
2021/11/10 01:40:46;;;;;;;15.38;6.48;;;;;;;;;;358667;147;864977;-55
2021/11/10 01:41:50;;;;;;;13.29;6.24;;;;;;;;;;358790;148;865054;-55
2021/11/10 01:42:53;;;;;;;12.71;6.72;;;;;;;;;;357779;147;857256;-55
2021/11/10 01:43:54;;;;;;;13.37;6.67;;;;;;;;;;358444;148;866114;-55
2021/11/10 01:44:56;;;;;;;14.26;6.67;;;;;;;;;;360093;148;857405;-56
2021/11/10 01:45:58;;;;;;;14.25;6.97;;;;;;;;;;359335;148;865852;-55
2021/11/10 01:47:02;;;;;;;17.41;7.96;;;;;;;;;;357777;147;857292;-55
2021/11/10 01:48:04;;;;;;;14.78;7.09;;;;;;;;;;359417;149;858272;-56
2021/11/10 01:49:05;;;;;;;14.23;6.93;;;;;;;;;;360552;145;857911;-55
2021/11/10 01:50:09;;;;;;;16.36;7.21;;;;;;;;;;359148;147;858122;-55
2021/11/10 01:51:10;;;;;;;14.50;6.83;;;;;;;;;;357585;145;858247;-56
2021/11/10 01:52:12;;;;;;;15.50;7.26;;;;;;;;;;358020;148;859261;-55
2021/11/10 01:53:13;;;;;;;14.79;7.19;;;;;;;;;;358303;145;865006;-55
2021/11/10 01:54:15;;;;;;;14.77;7.26;;;;;;;;;;361436;147;865078;-56
2021/11/10 01:55:17;;;;;;;15.99;8.11;;;;;;;;;;359537;148;866811;-56
2021/11/10 01:56:19;;;;;;;13.47;7.29;;;;;;;;;;358040;148;859376;-56
2021/11/10 01:57:21;;;;;;;17.76;8.04;;;;;;;;;;359685;148;858336;-55
2021/11/10 01:58:23;;;;;;;14.44;6.58;;;;;;;;;;362269;148;865082;-56
2021/11/10 01:59:35;;;;;;;16.63;7.38;;;;;;;;;;357688;145;861845;-54
2021/11/10 02:00:37;;;;;;;15.54;7.60;;;;;;;;;;358671;147;857510;-54
2021/11/10 02:01:45;;;;;;;14.27;8.05;;;;;;;;;;358201;148;858832;-55
2021/11/10 02:02:50;;;;;;;19.92;8.35;;;;;;;;;;358915;145;865047;-57
2021/11/10 02:03:51;;;;;;;21.09;9.70;;;;;;;;;;359166;148;858909;-54
2021/11/10 02:04:53;;;;;;;22.04;8.49;;;;;;;;;;360737;147;864967;-57
2021/11/10 02:05:54;;;;;;;20.77;9.39;;;;;;;;;;359204;145;866344;-56
2021/11/10 02:06:57;;;;;;;18.30;8.28;;;;;;;;;;358274;145;857611;-54
2021/11/10 02:07:58;;;;;;;16.32;8.63;;;;;;;;;;358191;147;865202;-54
2021/11/10 02:09:00;;;;;;;20.74;8.71;;;;;;;;;;359208;148;857961;-56
2021/11/10 02:10:01;;;;;;;19.66;8.64;;;;;;;;;;354079;148;865005;-57
2021/11/10 02:11:03;;;;;;;15.93;8.63;;;;;;;;;;355596;150;865267;-55
2021/11/10 02:12:05;;;;;;;21.98;9.91;;;;;;;;;;359397;147;863543;-55
2021/11/10 02:13:07;;;;;;;20.43;8.94;;;;;;;;;;359411;149;866406;-55
2021/11/10 02:14:09;;;;;;;20.11;9.41;;;;;;;;;;358449;145;860585;-54
2021/11/10 02:15:11;;;;;;;16.59;9.04;;;;;;;;;;360039;147;858056;-55
2021/11/10 02:16:13;;;;;;;23.45;8.69;;;;;;;;;;357775;149;865158;-55
2021/11/10 02:17:15;;;;;;;15.11;7.74;;;;;;;;;;358841;148;857358;-55
2021/11/10 02:18:17;;;;;;;18.33;8.59;;;;;;;;;;357935;147;864998;-54
2021/11/10 02:19:19;;;;;;;20.28;9.23;;;;;;;;;;357841;148;857322;-55
2021/11/10 02:20:21;;;;;;;18.31;8.61;;;;;;;;;;360459;149;866577;-56
2021/11/10 02:21:23;;;;;;;16.65;8.16;;;;;;;;;;359326;148;857326;-55
2021/11/10 02:22:24;;;;;;;16.26;8.67;;;;;;;;;;361530;147;857383;-55
2021/11/10 02:23:26;;;;;;;19.61;8.72;;;;;;;;;;358153;149;857362;-56
2021/11/10 02:24:28;;;;;;;17.78;8.69;;;;;;;;;;358882;146;864369;-56
2021/11/10 02:25:30;;;;;;;17.95;8.39;;;;;;;;;;358998;147;861211;-56
2021/11/10 02:26:31;;;;;;;19.43;8.75;;;;;;;;;;361581;148;858952;-56
2021/11/10 02:27:37;;;;;;;14.79;7.92;;;;;;;;;;359211;148;857920;-55
2021/11/10 02:28:38;;;;;;;20.12;8.27;;;;;;;;;;359094;145;864292;-55
2021/11/10 02:29:40;;;;;;;19.09;8.94;;;;;;;;;;360727;148;858885;-56
2021/11/10 02:30:42;;;;;;;16.00;8.08;;;;;;;;;;361071;148;861302;-56
2021/11/10 02:31:44;;;;;;;20.23;8.74;;;;;;;;;;358551;145;865013;-55
2021/11/10 02:32:48;;;;;;;17.81;9.29;;;;;;;;;;359366;147;857312;-55
2021/11/10 02:33:50;;;;;;;19.79;8.77;;;;;;;;;;361055;145;857419;-55
2021/11/10 02:34:52;;;;;;;16.10;8.00;;;;;;;;;;358235;148;857968;-55
2021/11/10 02:36:00;;;;;;;21.26;9.16;;;;;;;;;;359421;147;865578;-55
2021/11/10 02:37:02;;;;;;;18.20;8.59;;;;;;;;;;359880;148;860112;-56
2021/11/10 02:38:10;;;;;;;15.74;7.91;;;;;;;;;;361756;147;857988;-55
2021/11/10 02:39:09;;;;;;;17.69;8.83;;;;;;;;;;357478;147;866001;-57
2021/11/10 02:40:11;;;;;;;17.86;8.50;;;;;;;;;;359769;147;859390;-57
2021/11/10 02:41:13;;;;;;;21.35;8.76;;;;;;;;;;360238;148;865887;-58
2021/11/10 02:42:15;;;;;;;19.69;8.95;;;;;;;;;;360609;145;865807;-58
2021/11/10 02:43:17;;;;;;;20.50;9.27;;;;;;;;;;361917;146;864852;-56
2021/11/10 02:44:19;;;;;;;16.76;8.12;;;;;;;;;;362866;148;857467;-57
2021/11/10 02:45:21;;;;;;;16.91;8.18;;;;;;;;;;360675;148;865020;-56
2021/11/10 02:46:23;;;;;;;19.79;8.72;;;;;;;;;;360500;146;857410;-54
2021/11/10 02:47:25;;;;;;;17.41;8.47;;;;;;;;;;356711;147;865033;-53
2021/11/10 02:48:26;;;;;;;21.50;9.20;;;;;;;;;;358904;148;857309;-55
2021/11/10 02:49:29;;;;;;;17.85;9.40;;;;;;;;;;360540;147;866898;-53
2021/11/10 02:50:32;;;;;;;14.54;8.08;;;;;;;;;;359239;147;864750;-55
2021/11/10 02:51:34;;;;;;;16.63;8.56;;;;;;;;;;360495;148;857676;-56
2021/11/10 02:52:36;;;;;;;17.23;7.99;;;;;;;;;;357672;147;857035;-55
2021/11/10 02:53:37;;;;;;;25.40;8.29;;;;;;;;;;359196;147;865984;-56
2021/11/10 02:54:42;;;;;;;22.44;8.94;;;;;;;;;;358574;148;864855;-55
2021/11/10 02:55:44;;;;;;;16.91;8.27;;;;;;;;;;358286;148;860890;-55
2021/11/10 02:56:46;;;;;;;17.77;8.94;;;;;;;;;;357902;147;858810;-56
2021/11/10 02:57:47;;;;;;;18.46;8.00;;;;;;;;;;359064;145;864970;-55
2021/11/10 02:58:49;;;;;;;19.10;8.34;;;;;;;;;;358993;148;859576;-55
2021/11/10 02:59:50;;;;;;;21.83;9.39;;;;;;;;;;359641;145;865491;-56
2021/11/10 03:00:52;;;;;;;14.53;8.18;;;;;;;;;;361274;145;863455;-55
2021/11/10 03:01:54;;;;;;;18.41;7.49;;;;;;;;;;360046;148;857221;-55
2021/11/10 03:02:56;;;;;;;15.61;7.24;;;;;;;;;;359562;147;866946;-58
2021/11/10 03:03:57;;;;;;;21.79;9.03;;;;;;;;;;361102;147;859076;-56
2021/11/10 03:04:59;;;;;;;18.54;8.19;;;;;;;;;;360619;145;864732;-55
2021/11/10 03:06:01;;;;;;;16.69;7.99;;;;;;;;;;361609;148;865086;-55
2021/11/10 03:07:02;;;;;;;17.56;8.91;;;;;;;;;;359718;145;857281;-55
2021/11/10 03:08:04;;;;;;;15.93;8.05;;;;;;;;;;359886;147;862782;-55
2021/11/10 03:09:06;;;;;;;19.31;8.34;;;;;;;;;;360980;145;857572;-55
2021/11/10 03:10:08;;;;;;;17.08;8.63;;;;;;;;;;357269;147;865978;-55
2021/11/10 03:11:10;;;;;;;16.29;7.53;;;;;;;;;;359441;147;857254;-54
2021/11/10 03:12:12;;;;;;;17.59;8.29;;;;;;;;;;360705;147;856959;-55
2021/11/10 03:13:13;;;;;;;16.73;7.90;;;;;;;;;;358778;148;866504;-54
2021/11/10 03:14:15;;;;;;;14.58;7.89;;;;;;;;;;359346;145;859063;-55
2021/11/10 03:15:17;;;;;;;19.84;8.43;;;;;;;;;;361655;147;858148;-55
2021/11/10 03:16:20;;;;;;;17.26;8.81;;;;;;;;;;361942;148;866396;-55
2021/11/10 03:17:21;;;;;;;20.20;8.25;;;;;;;;;;359177;146;857259;-55
2021/11/10 03:18:23;;;;;;;17.65;8.61;;;;;;;;;;358228;147;866029;-56
2021/11/10 03:19:24;;;;;;;18.09;8.27;;;;;;;;;;361890;148;862038;-54
2021/11/10 03:20:27;;;;;;;15.87;7.81;;;;;;;;;;356435;148;865023;-54
2021/11/10 03:21:28;;;;;;;19.55;8.77;;;;;;;;;;359760;146;857424;-54
2021/11/10 03:22:31;;;;;;;17.65;8.75;;;;;;;;;;357351;148;857682;-55
2021/11/10 03:23:32;;;;;;;19.48;8.43;;;;;;;;;;362063;148;859166;-55
2021/11/10 03:24:34;;;;;;;20.35;9.00;;;;;;;;;;361052;145;866851;-55
2021/11/10 03:25:36;;;;;;;20.35;10.11;;;;;;;;;;358342;146;860377;-55
2021/11/10 03:26:38;;;;;;;20.85;9.55;;;;;;;;;;357567;148;857660;-54
2021/11/10 03:27:40;;;;;;;26.93;10.96;;;;;;;;;;357388;146;860715;-55
2021/11/10 03:28:41;;;;;;;24.65;10.86;;;;;;;;;;359650;146;857338;-55
2021/11/10 03:29:45;;;;;;;20.58;10.18;;;;;;;;;;359444;147;861014;-55
2021/11/10 03:30:46;;;;;;;19.62;9.99;;;;;;;;;;360152;145;862514;-55
2021/11/10 03:31:48;;;;;;;21.53;10.21;;;;;;;;;;359628;146;857910;-54
2021/11/10 03:32:51;;;;;;;22.79;9.68;;;;;;;;;;360672;147;866726;-55
2021/11/10 03:33:53;;;;;;;22.03;9.72;;;;;;;;;;359447;148;867135;-54
2021/11/10 03:34:54;;;;;;;24.49;10.12;;;;;;;;;;357658;147;857366;-54
2021/11/10 03:35:56;;;;;;;24.09;10.41;;;;;;;;;;359491;145;864893;-54
2021/11/10 03:36:58;;;;;;;22.25;10.21;;;;;;;;;;363127;147;866718;-54
2021/11/10 03:38:00;;;;;;;20.34;10.38;;;;;;;;;;361178;147;857175;-57
2021/11/10 03:39:02;;;;;;;24.89;10.23;;;;;;;;;;359878;145;864864;-55
2021/11/10 03:40:05;;;;;;;25.53;10.15;;;;;;;;;;353493;147;860159;-55
2021/11/10 03:41:06;;;;;;;27.56;11.24;;;;;;;;;;363553;145;866426;-56
2021/11/10 03:42:08;;;;;;;24.71;9.73;;;;;;;;;;360995;146;859751;-55
2021/11/10 03:43:10;;;;;;;24.21;10.65;;;;;;;;;;360131;147;865469;-55
2021/11/10 03:44:11;;;;;;;21.41;10.74;;;;;;;;;;361244;146;866274;-55
2021/11/10 03:45:13;;;;;;;25.04;10.42;;;;;;;;;;361191;147;859945;-55
2021/11/10 03:46:15;;;;;;;21.65;11.60;;;;;;;;;;362155;145;864032;-55
2021/11/10 03:47:17;;;;;;;22.59;11.36;;;;;;;;;;360152;146;857263;-55
2021/11/10 03:48:18;;;;;;;26.19;11.47;;;;;;;;;;361674;145;863933;-54
2021/11/10 03:49:21;;;;;;;24.95;11.32;;;;;;;;;;362043;144;858716;-54
2021/11/10 03:50:24;;;;;;;24.04;11.38;;;;;;;;;;362063;145;866654;-57
2021/11/10 03:51:27;;;;;;;25.26;11.00;;;;;;;;;;364145;145;857277;-57
2021/11/10 03:52:28;;;;;;;22.99;11.18;;;;;;;;;;360523;146;865751;-57
2021/11/10 03:53:30;;;;;;;23.01;10.79;;;;;;;;;;359668;146;866543;-57
2021/11/10 03:54:31;;;;;;;27.89;11.14;;;;;;;;;;364225;146;864924;-58
2021/11/10 03:55:36;;;;;;;26.54;11.23;;;;;;;;;;361928;147;864837;-57
2021/11/10 03:56:38;;;;;;;25.16;11.67;;;;;;;;;;360561;145;860092;-57
2021/11/10 03:57:40;;;;;;;21.70;11.07;;;;;;;;;;352710;150;864786;-57
2021/11/10 03:58:41;;;;;;;23.18;10.93;;;;;;;;;;362328;145;864758;-57
2021/11/10 03:59:43;;;;;;;28.89;11.04;;;;;;;;;;362046;145;857706;-57
2021/11/10 04:00:45;;;;;;;24.04;11.14;;;;;;;;;;360141;145;865157;-57
2021/11/10 04:01:46;;;;;;;21.17;10.63;;;;;;;;;;364102;147;864843;-57
2021/11/10 04:02:48;;;;;;;23.26;11.36;;;;;;;;;;360831;147;857295;-57
2021/11/10 04:03:50;;;;;;;23.83;10.95;;;;;;;;;;359869;146;864945;-55
2021/11/10 04:04:51;;;;;;;25.57;11.77;;;;;;;;;;360063;147;864885;-55
2021/11/10 04:05:53;;;;;;;29.31;11.85;;;;;;;;;;365002;146;864970;-55
2021/11/10 04:06:55;;;;;;;26.93;12.49;;;;;;;;;;361339;145;866151;-55
2021/11/10 04:07:56;;;;;;;24.66;11.04;;;;;;;;;;362696;144;859657;-55
2021/11/10 04:08:58;;;;;;;27.21;12.22;;;;;;;;;;359214;147;865379;-55
2021/11/10 04:10:00;;;;;;;23.14;11.26;;;;;;;;;;359646;147;865241;-56
2021/11/10 04:11:01;;;;;;;24.49;11.31;;;;;;;;;;360201;146;859477;-56
2021/11/10 04:12:04;;;;;;;22.45;11.50;;;;;;;;;;361287;145;864876;-55
2021/11/10 04:13:05;;;;;;;30.12;12.42;;;;;;;;;;362613;145;857399;-55
2021/11/10 04:14:07;;;;;;;26.28;11.18;;;;;;;;;;359915;146;857252;-56
2021/11/10 04:15:09;;;;;;;22.07;10.76;;;;;;;;;;362212;146;858384;-55
2021/11/10 04:16:11;;;;;;;23.30;10.82;;;;;;;;;;361127;146;865690;-55
2021/11/10 04:17:13;;;;;;;26.21;11.75;;;;;;;;;;360680;147;857395;-55
2021/11/10 04:18:14;;;;;;;23.71;11.49;;;;;;;;;;360712;146;865475;-55
2021/11/10 04:19:16;;;;;;;25.02;11.47;;;;;;;;;;362193;147;866234;-54
2021/11/10 04:20:18;;;;;;;23.85;11.39;;;;;;;;;;363173;145;864627;-55
2021/11/10 04:21:20;;;;;;;27.35;11.61;;;;;;;;;;363055;145;857427;-57
2021/11/10 04:22:23;;;;;;;24.13;11.06;;;;;;;;;;363168;144;857481;-57
2021/11/10 04:24:48;;;;;;;24.17;11.12;;;;;;;;;;363925;147;859231;-55
2021/11/10 04:25:50;;;;;;;24.12;10.50;;;;;;;;;;363197;146;858385;-55
2021/11/10 04:26:52;;;;;;;23.61;10.84;;;;;;;;;;363608;145;864787;-57
2021/11/10 04:27:53;;;;;;;25.33;11.29;;;;;;;;;;361308;145;866586;-54
2021/11/10 04:28:55;;;;;;;22.23;11.25;;;;;;;;;;364215;147;860658;-54
2021/11/10 04:29:57;;;;;;;24.49;11.05;;;;;;;;;;363074;146;867755;-55
2021/11/10 04:30:59;;;;;;;26.04;11.23;;;;;;;;;;365351;147;857845;-54
2021/11/10 04:32:01;;;;;;;23.86;11.48;;;;;;;;;;361676;146;857939;-54
2021/11/10 04:33:02;;;;;;;22.49;10.63;;;;;;;;;;362728;146;864860;-54
2021/11/10 04:34:05;;;;;;;30.81;11.75;;;;;;;;;;362224;147;864950;-54
2021/11/10 04:35:07;;;;;;;22.51;10.58;;;;;;;;;;360427;147;860186;-55
2021/11/10 04:36:10;;;;;;;23.07;11.05;;;;;;;;;;364164;146;857796;-54
2021/11/10 04:37:13;;;;;;;24.77;11.55;;;;;;;;;;364549;146;857777;-55
2021/11/10 04:38:15;;;;;;;22.99;11.47;;;;;;;;;;363874;147;858322;-54
2021/11/10 04:39:17;;;;;;;23.93;10.85;;;;;;;;;;363502;147;857237;-53
2021/11/10 04:40:18;;;;;;;23.90;10.90;;;;;;;;;;360876;146;856513;-53
2021/11/10 04:41:20;;;;;;;23.31;10.94;;;;;;;;;;356325;148;857347;-53
2021/11/10 04:42:22;;;;;;;22.95;10.69;;;;;;;;;;350312;149;864756;-53
2021/11/10 04:43:24;;;;;;;26.49;11.35;;;;;;;;;;351334;149;858162;-54
2021/11/10 04:44:26;;;;;;;23.49;11.46;;;;;;;;;;356317;148;858534;-55
2021/11/10 04:45:35;;;;;;;24.25;12.10;;;;;;;;;;353618;150;864248;-57
2021/11/10 04:46:37;;;;;;;22.90;11.48;;;;;;;;;;357049;148;865592;-54
2021/11/10 04:47:39;;;;;;;22.26;10.33;;;;;;;;;;358194;149;858417;-62
2021/11/10 04:48:40;;;;;;;26.17;11.81;;;;;;;;;;357460;147;864998;-60
2021/11/10 04:49:42;;;;;;;24.39;10.81;;;;;;;;;;356282;148;860139;-55
2021/11/10 04:50:46;;;;;;;25.09;11.29;;;;;;;;;;350724;150;857256;-56
2021/11/10 04:51:47;;;;;;;28.30;11.58;;;;;;;;;;355457;150;865543;-55
2021/11/10 04:52:49;;;;;;;23.12;11.16;;;;;;;;;;351348;150;857539;-54
2021/11/10 04:53:50;;;;;;;23.61;11.17;;;;;;;;;;348333;152;865330;-55
2021/11/10 04:54:52;;;;;;;19.79;10.29;;;;;;;;;;349961;151;860696;-56
2021/11/10 04:55:54;;;;;;;24.09;10.99;;;;;;;;;;351951;151;865707;-55
2021/11/10 04:56:56;;;;;;;26.00;11.41;;;;;;;;;;350497;151;865392;-56
2021/11/10 04:57:58;;;;;;;24.52;10.58;;;;;;;;;;351012;150;866218;-56
2021/11/10 04:58:59;;;;;;;23.01;11.10;;;;;;;;;;351606;152;858707;-54
2021/11/10 05:00:01;;;;;;;25.22;10.87;;;;;;;;;;351318;151;857396;-54
2021/11/10 05:01:03;;;;;;;24.47;11.07;;;;;;;;;;350476;150;867099;-55
2021/11/10 05:03:07;;;;;;;27.90;12.26;;;;;;;;;;351177;152;865938;-56
2021/11/10 05:04:08;;;;;;;24.83;10.81;;;;;;;;;;349542;150;864909;-54
2021/11/10 05:05:10;;;;;;;25.52;11.56;;;;;;;;;;350116;152;856679;-54
2021/11/10 05:06:13;;;;;;;30.06;12.05;;;;;;;;;;350932;151;864717;-54
2021/11/10 05:07:15;;;;;;;26.25;11.70;;;;;;;;;;350129;151;858636;-55
2021/11/10 05:08:17;;;;;;;27.16;11.05;;;;;;;;;;349630;151;857249;-56
2021/11/10 05:09:18;;;;;;;25.21;11.26;;;;;;;;;;352030;151;858679;-55
2021/11/10 05:10:21;;;;;;;24.55;12.27;;;;;;;;;;350744;151;864688;-54
2021/11/10 05:11:22;;;;;;;27.68;12.57;;;;;;;;;;350563;150;859049;-56
2021/11/10 05:12:24;;;;;;;32.26;13.44;;;;;;;;;;349188;151;865350;-54
2021/11/10 05:13:26;;;;;;;29.19;13.99;;;;;;;;;;350903;151;864987;-56
2021/11/10 05:14:28;;;;;;;31.71;14.11;;;;;;;;;;347793;152;865869;-56
2021/11/10 05:15:29;;;;;;;32.73;15.56;;;;;;;;;;350786;150;857735;-53
2021/11/10 05:16:32;;;;;;;30.64;13.84;;;;;;;;;;351769;151;864948;-54
2021/11/10 05:17:34;;;;;;;28.09;13.59;;;;;;;;;;347043;153;857301;-55
2021/11/10 05:18:35;;;;;;;25.08;12.66;;;;;;;;;;347257;153;859007;-54
2021/11/10 05:19:37;;;;;;;26.34;13.07;;;;;;;;;;348932;152;867173;-55
2021/11/10 05:20:39;;;;;;;23.35;12.63;;;;;;;;;;346548;153;864133;-54
2021/11/10 05:21:41;;;;;;;24.61;12.24;;;;;;;;;;347542;152;859233;-55
2021/11/10 05:22:42;;;;;;;24.84;12.74;;;;;;;;;;350668;150;864706;-58
2021/11/10 05:23:44;;;;;;;27.50;12.62;;;;;;;;;;344982;154;865701;-58
2021/11/10 05:24:45;;;;;;;26.13;12.75;;;;;;;;;;346445;151;858001;-57
2021/11/10 05:25:47;;;;;;;27.09;13.23;;;;;;;;;;348808;151;865486;-57
2021/11/10 05:26:49;;;;;;;28.14;13.87;;;;;;;;;;347343;152;866608;-57
2021/11/10 05:27:50;;;;;;;25.73;11.80;;;;;;;;;;345740;152;865635;-56
2021/11/10 05:28:53;;;;;;;23.64;12.35;;;;;;;;;;347612;152;857605;-58
2021/11/10 05:29:54;;;;;;;29.71;12.75;;;;;;;;;;348414;152;857274;-58
2021/11/10 05:30:56;;;;;;;24.63;12.44;;;;;;;;;;349715;152;858930;-55
2021/11/10 05:31:58;;;;;;;24.61;10.96;;;;;;;;;;349210;151;859914;-55
2021/11/10 05:32:59;;;;;;;24.76;12.10;;;;;;;;;;349181;152;865401;-56
2021/11/10 05:34:01;;;;;;;27.16;12.89;;;;;;;;;;351156;152;864865;-56
2021/11/10 05:35:03;;;;;;;22.16;12.05;;;;;;;;;;351198;152;862408;-58
2021/11/10 05:36:04;;;;;;;27.69;12.71;;;;;;;;;;348375;152;857758;-55
2021/11/10 05:37:06;;;;;;;24.99;11.51;;;;;;;;;;348090;152;857387;-56
2021/11/10 05:38:08;;;;;;;24.41;12.28;;;;;;;;;;352934;151;857744;-58
2021/11/10 05:39:09;;;;;;;27.71;12.61;;;;;;;;;;349780;151;865759;-55
2021/11/10 05:40:11;;;;;;;22.53;12.22;;;;;;;;;;348255;152;856979;-57
2021/11/10 05:41:13;;;;;;;26.50;11.89;;;;;;;;;;350101;152;857509;-57
2021/11/10 05:42:16;;;;;;;23.92;11.87;;;;;;;;;;350235;151;857232;-55
2021/11/10 05:43:17;;;;;;;23.68;11.77;;;;;;;;;;346365;153;857746;-54
2021/11/10 05:44:19;;;;;;;21.98;11.90;;;;;;;;;;349081;152;859652;-58
2021/11/10 05:45:21;;;;;;;23.33;11.79;;;;;;;;;;345872;154;864721;-54
2021/11/10 05:46:23;;;;;;;27.91;12.21;;;;;;;;;;340454;154;864942;-56
2021/11/10 05:47:25;;;;;;;24.51;12.01;;;;;;;;;;340871;154;864928;-58
2021/11/10 05:48:26;;;;;;;25.99;11.70;;;;;;;;;;341870;155;865589;-56
2021/11/10 05:49:28;;;;;;;24.75;12.44;;;;;;;;;;343331;153;865057;-56
2021/11/10 05:50:30;;;;;;;30.89;12.43;;;;;;;;;;344792;154;866190;-57
2021/11/10 05:51:32;;;;;;;29.33;13.15;;;;;;;;;;346824;152;856280;-59
2021/11/10 05:52:34;;;;;;;25.03;12.15;;;;;;;;;;342549;156;863982;-55
2021/11/10 05:53:42;;;;;;;24.48;11.63;;;;;;;;;;347729;151;859325;-56
2021/11/10 05:54:40;;;;;;;25.59;11.43;;;;;;;;;;347151;152;857684;-55
2021/11/10 05:55:42;;;;;;;21.07;11.31;;;;;;;;;;345877;152;858103;-53
2021/11/10 05:56:46;;;;;;;24.45;11.25;;;;;;;;;;346642;154;859783;-54
2021/11/10 05:57:48;;;;;;;23.48;12.32;;;;;;;;;;345635;151;858050;-56
2021/11/10 05:58:50;;;;;;;25.59;11.79;;;;;;;;;;348889;152;866030;-57
2021/11/10 05:59:52;;;;;;;22.96;11.90;;;;;;;;;;348770;151;858831;-56
2021/11/10 06:00:54;;;;;;;26.07;11.49;;;;;;;;;;339005;157;857161;-56